Time;durP1;ratioP1;P1;durP2;ratioP2;P2;SDS_P1;SDS_P2;PMS_P1;PMS_P2;Temp;Humidity;BMP_temperature;BMP_pressure;BME280_temperature;BME280_humidity;BME280_pressure;Samples;Min_cycle;Max_cycle;Signal;HPM_P1;HPM_P2
2023/07/30 00:00:50;;;;;;;9.15;2.03;;;16.90;99.90;;;;;;4861875;29;20052;-53
2023/07/30 00:03:17;;;;;;;11.48;2.20;;;16.90;99.90;;;;;;4861541;29;20064;-53
2023/07/30 00:05:44;;;;;;;8.48;2.10;;;16.90;99.90;;;;;;4861680;29;20108;-54
2023/07/30 00:08:11;;;;;;;9.82;2.40;;;16.90;99.90;;;;;;4859814;29;20045;-56
2023/07/30 00:10:38;;;;;;;12.02;2.15;;;16.90;99.90;;;;;;4861103;29;20042;-52
2023/07/30 00:13:05;;;;;;;10.43;2.45;;;16.80;99.90;;;;;;4861373;29;20050;-56
2023/07/30 00:15:32;;;;;;;10.23;2.30;;;16.80;99.90;;;;;;4861431;29;20449;-52
2023/07/30 00:17:59;;;;;;;13.02;2.47;;;16.80;99.90;;;;;;4859946;29;20053;-54
2023/07/30 00:20:25;;;;;;;12.15;2.50;;;16.70;99.90;;;;;;4861124;29;20060;-58
2023/07/30 00:22:53;;;;;;;10.93;2.42;;;16.70;99.90;;;;;;4861040;29;20069;-52
2023/07/30 00:25:20;;;;;;;10.95;2.30;;;16.70;99.90;;;;;;4860994;29;20056;-52
2023/07/30 00:27:46;;;;;;;11.23;2.42;;;16.80;99.90;;;;;;4861317;29;20037;-56
2023/07/30 00:30:13;;;;;;;13.65;2.80;;;16.80;99.90;;;;;;4860304;29;20401;-55
2023/07/30 00:32:43;;;;;;;12.32;2.47;;;16.70;99.90;;;;;;4859692;29;20050;-57
2023/07/30 00:35:11;;;;;;;9.73;2.20;;;16.80;99.90;;;;;;4860958;29;20129;-52
2023/07/30 00:37:38;;;;;;;9.02;2.47;;;16.90;99.90;;;;;;4861229;29;20082;-52
2023/07/30 00:40:06;;;;;;;9.98;2.47;;;16.90;99.90;;;;;;4861046;29;20049;-55
2023/07/30 00:42:33;;;;;;;11.25;2.17;;;16.90;99.90;;;;;;4860215;29;20049;-52
2023/07/30 00:45:00;;;;;;;10.02;2.50;;;17.00;99.90;;;;;;4860926;29;20132;-53
2023/07/30 00:47:26;;;;;;;9.35;2.47;;;17.00;99.90;;;;;;4863335;29;20041;-56
2023/07/30 00:49:53;;;;;;;10.85;2.33;;;17.00;99.90;;;;;;4863143;29;20478;-53
2023/07/30 00:52:20;;;;;;;11.75;2.63;;;17.00;99.90;;;;;;4864397;29;20049;-56
2023/07/30 00:54:47;;;;;;;14.70;2.90;;;17.00;99.90;;;;;;4863208;29;20042;-52
2023/07/30 00:57:14;;;;;;;11.52;2.53;;;17.00;99.90;;;;;;4863453;29;20053;-50
2023/07/30 00:59:41;;;;;;;10.68;3.00;;;17.00;99.90;;;;;;4864516;29;20054;-52
2023/07/30 01:02:08;;;;;;;14.23;3.15;;;17.00;99.90;;;;;;4863335;29;20050;-50
2023/07/30 01:04:37;;;;;;;15.13;2.58;;;17.00;99.90;;;;;;4863286;29;20049;-57
2023/07/30 01:07:04;;;;;;;12.70;2.53;;;17.00;99.90;;;;;;4864395;29;20049;-56
2023/07/30 01:09:30;;;;;;;9.73;2.47;;;17.00;99.90;;;;;;4862682;29;20045;-55
2023/07/30 01:11:57;;;;;;;12.88;2.85;;;16.90;99.90;;;;;;4847112;29;20057;-51
2023/07/30 01:14:26;;;;;;;9.52;2.30;;;16.90;99.90;;;;;;4862862;29;20041;-54
2023/07/30 01:16:53;;;;;;;13.77;3.15;;;16.90;99.90;;;;;;4862606;29;20052;-51
2023/07/30 01:19:19;;;;;;;8.93;2.25;;;16.90;99.90;;;;;;4862593;29;20046;-55
2023/07/30 01:21:46;;;;;;;14.07;3.03;;;16.80;99.90;;;;;;4862658;29;20466;-55
2023/07/30 01:24:13;;;;;;;13.15;2.97;;;16.80;99.90;;;;;;4863178;29;20057;-53
2023/07/30 01:26:40;;;;;;;11.13;2.33;;;16.80;99.90;;;;;;4864207;29;20096;-53
2023/07/30 01:29:06;;;;;;;11.05;2.55;;;16.80;99.90;;;;;;4864186;29;20046;-54
2023/07/30 01:31:33;;;;;;;14.77;2.83;;;16.80;99.90;;;;;;4863931;29;20038;-53
2023/07/30 01:34:00;;;;;;;10.52;2.70;;;16.80;99.90;;;;;;4862935;29;20096;-54
2023/07/30 01:36:27;;;;;;;9.65;2.28;;;16.90;99.90;;;;;;4862474;29;20412;-55
2023/07/30 01:38:54;;;;;;;8.27;2.70;;;16.90;99.90;;;;;;4863579;29;20132;-55
2023/07/30 01:41:21;;;;;;;12.63;2.60;;;16.80;99.90;;;;;;4863650;29;20405;-55
2023/07/30 01:43:47;;;;;;;10.52;2.30;;;16.80;99.90;;;;;;4863547;29;20063;-58
2023/07/30 01:46:14;;;;;;;9.55;2.05;;;16.70;99.90;;;;;;4863409;29;20050;-57
2023/07/30 01:48:41;;;;;;;11.68;2.30;;;16.70;99.90;;;;;;4863272;29;20049;-51
2023/07/30 01:51:08;;;;;;;9.82;2.15;;;16.70;99.90;;;;;;4862124;29;20413;-55
2023/07/30 01:53:35;;;;;;;11.85;2.60;;;16.60;99.90;;;;;;4863634;29;20048;-51
2023/07/30 01:56:01;;;;;;;9.25;2.17;;;16.60;99.90;;;;;;4862115;29;20041;-54
2023/07/30 01:58:28;;;;;;;10.50;2.53;;;16.60;99.90;;;;;;4861210;29;20057;-58
2023/07/30 02:00:55;;;;;;;8.27;2.00;;;16.50;99.90;;;;;;4862296;29;20508;-54
2023/07/30 02:03:22;;;;;;;10.65;2.03;;;16.50;99.90;;;;;;4863229;29;20061;-57
2023/07/30 02:05:49;;;;;;;7.15;2.35;;;16.50;99.90;;;;;;4863654;29;20057;-54
2023/07/30 02:08:17;;;;;;;12.05;2.75;;;16.50;99.90;;;;;;4862145;29;20124;-54
2023/07/30 02:10:43;;;;;;;11.93;2.05;;;16.50;99.90;;;;;;4861670;29;20069;-56
2023/07/30 02:13:11;;;;;;;9.35;2.03;;;16.50;99.90;;;;;;4862972;29;20057;-56
2023/07/30 02:15:38;;;;;;;9.98;2.25;;;16.50;99.90;;;;;;4861467;29;20050;-52
2023/07/30 02:18:04;;;;;;;7.10;2.03;;;16.60;99.90;;;;;;4862819;29;20048;-50
2023/07/30 02:20:32;;;;;;;12.95;2.15;;;16.60;99.90;;;;;;4861737;29;20049;-57
2023/07/30 02:22:58;;;;;;;13.13;2.50;;;16.60;99.90;;;;;;4862966;29;20072;-50
2023/07/30 02:25:25;;;;;;;8.57;2.05;;;16.60;99.90;;;;;;4861500;29;20050;-54
2023/07/30 02:27:52;;;;;;;10.35;2.13;;;16.60;99.90;;;;;;4861295;29;20505;-51
2023/07/30 02:30:19;;;;;;;9.57;2.10;;;16.60;99.90;;;;;;4862545;29;20072;-54
2023/07/30 02:32:46;;;;;;;8.85;2.33;;;16.60;99.90;;;;;;4863089;29;20451;-51
2023/07/30 02:35:14;;;;;;;12.73;2.60;;;16.50;99.90;;;;;;4861869;29;20053;-51
2023/07/30 02:37:40;;;;;;;9.68;1.92;;;16.50;99.90;;;;;;4861796;29;20057;-50
2023/07/30 02:40:07;;;;;;;8.52;2.20;;;16.50;99.90;;;;;;4861441;29;20063;-53
2023/07/30 02:42:34;;;;;;;8.95;2.38;;;16.50;99.90;;;;;;4861457;29;20410;-51
2023/07/30 02:45:01;;;;;;;7.22;1.92;;;16.50;99.90;;;;;;4861174;29;20056;-51
2023/07/30 02:47:28;;;;;;;8.43;2.05;;;16.50;99.90;;;;;;4862426;29;20179;-53
2023/07/30 02:49:54;;;;;;;10.15;2.20;;;16.60;99.90;;;;;;4862170;29;20069;-55
2023/07/30 02:52:21;;;;;;;4.53;1.33;;;16.60;99.90;;;;;;4860959;29;20054;-50
2023/07/30 02:54:48;;;;;;;7.57;1.88;;;16.60;99.90;;;;;;4860918;29;20073;-51
2023/07/30 02:57:15;;;;;;;8.77;2.35;;;16.60;99.90;;;;;;4862041;29;20497;-54
2023/07/30 02:59:42;;;;;;;8.55;2.00;;;16.60;99.90;;;;;;4860712;29;20132;-49
2023/07/30 03:02:09;;;;;;;6.97;2.20;;;16.70;99.90;;;;;;4861194;29;20454;-52
2023/07/30 03:04:36;;;;;;;9.25;1.88;;;16.70;99.90;;;;;;4861426;29;20049;-57
2023/07/30 03:07:02;;;;;;;5.78;1.42;;;16.70;99.90;;;;;;4860693;29;20050;-52
2023/07/30 03:09:29;;;;;;;7.82;1.90;;;16.70;99.90;;;;;;4860709;29;20097;-57
2023/07/30 03:11:56;;;;;;;5.97;1.52;;;16.70;99.90;;;;;;4862062;29;20052;-57
2023/07/30 03:14:23;;;;;;;9.02;1.95;;;16.70;99.90;;;;;;4860892;29;20046;-56
2023/07/30 03:16:50;;;;;;;9.25;1.63;;;16.70;99.90;;;;;;4861647;29;20497;-55
2023/07/30 03:19:17;;;;;;;8.80;1.80;;;16.70;99.90;;;;;;4861860;29;20052;-55
2023/07/30 03:21:44;;;;;;;7.55;1.88;;;16.70;99.90;;;;;;4860293;29;20432;-56
2023/07/30 03:24:10;;;;;;;13.63;1.85;;;16.70;99.90;;;;;;4862257;29;20061;-51
2023/07/30 03:26:37;;;;;;;7.20;2.20;;;16.70;99.90;;;;;;4862064;29;20053;-56
2023/07/30 03:29:04;;;;;;;9.85;2.60;;;16.70;99.90;;;;;;4860420;29;20049;-55
2023/07/30 03:31:31;;;;;;;5.85;1.70;;;16.70;99.90;;;;;;4860630;29;20140;-56
2023/07/30 03:33:58;;;;;;;7.15;1.73;;;16.60;99.90;;;;;;4861715;29;20120;-54
2023/07/30 03:36:25;;;;;;;6.53;1.73;;;16.50;99.90;;;;;;4861752;29;20129;-56
2023/07/30 03:38:51;;;;;;;9.75;1.73;;;16.50;99.90;;;;;;4860357;29;20064;-54
2023/07/30 03:41:18;;;;;;;5.35;1.33;;;16.50;99.90;;;;;;4860591;29;20049;-54
2023/07/30 03:43:45;;;;;;;7.22;2.17;;;16.50;99.90;;;;;;4861199;29;20106;-56
2023/07/30 03:46:12;;;;;;;5.72;1.63;;;16.50;99.90;;;;;;4861123;29;20421;-50
2023/07/30 03:48:39;;;;;;;8.40;1.92;;;16.50;99.90;;;;;;4861298;29;20420;-57
2023/07/30 03:51:07;;;;;;;6.10;1.48;;;16.40;99.90;;;;;;4861682;29;20042;-53
2023/07/30 03:53:33;;;;;;;6.45;2.30;;;16.40;99.90;;;;;;4861507;29;20045;-56
2023/07/30 03:56:00;;;;;;;10.27;1.80;;;16.30;99.90;;;;;;4861748;29;20050;-47
2023/07/30 03:58:27;;;;;;;8.73;1.65;;;16.30;99.90;;;;;;4861275;29;20120;-51
2023/07/30 04:00:54;;;;;;;8.10;1.67;;;16.30;99.90;;;;;;4860365;29;20053;-54
2023/07/30 04:03:20;;;;;;;5.65;1.40;;;16.20;99.90;;;;;;4860076;29;20141;-52
2023/07/30 04:05:47;;;;;;;7.53;1.83;;;16.20;99.90;;;;;;4860277;29;20073;-56
2023/07/30 04:08:14;;;;;;;7.45;1.60;;;16.10;99.90;;;;;;4859881;29;20454;-52
2023/07/30 04:10:41;;;;;;;7.90;1.60;;;16.10;99.90;;;;;;4860357;29;20049;-54
2023/07/30 04:13:08;;;;;;;6.85;1.77;;;16.00;99.90;;;;;;4861201;29;20046;-57
2023/07/30 04:15:35;;;;;;;6.25;1.65;;;15.90;99.90;;;;;;4860932;29;20120;-53
2023/07/30 04:18:02;;;;;;;9.57;1.77;;;15.90;99.90;;;;;;4861431;29;20537;-55
2023/07/30 04:20:28;;;;;;;10.48;2.13;;;15.80;99.90;;;;;;4861045;29;20478;-52
2023/07/30 04:22:55;;;;;;;9.23;2.28;;;15.80;99.90;;;;;;4864942;29;20057;-57
2023/07/30 04:25:22;;;;;;;10.55;1.63;;;15.80;99.90;;;;;;4865437;29;20081;-51
2023/07/30 04:27:49;;;;;;;5.90;1.70;;;15.80;99.90;;;;;;4865090;29;20125;-52
2023/07/30 04:30:16;;;;;;;7.00;1.50;;;15.70;99.90;;;;;;4863619;29;20065;-51
2023/07/30 04:32:42;;;;;;;5.70;1.35;;;15.70;99.90;;;;;;4864914;29;20128;-54
2023/07/30 04:35:09;;;;;;;10.18;1.90;;;15.70;99.90;;;;;;4863822;29;20049;-56
2023/07/30 04:37:37;;;;;;;7.97;1.70;;;15.70;99.90;;;;;;4863865;29;20098;-56
2023/07/30 04:40:04;;;;;;;7.20;1.67;;;15.70;99.90;;;;;;4865217;29;20085;-51
2023/07/30 04:42:32;;;;;;;9.20;2.13;;;15.60;99.90;;;;;;4863099;29;20467;-53
2023/07/30 04:44:59;;;;;;;8.82;1.83;;;15.60;99.90;;;;;;4864394;29;20045;-55
2023/07/30 04:47:26;;;;;;;7.80;1.58;;;15.60;99.90;;;;;;4863829;29;20069;-52
2023/07/30 04:49:53;;;;;;;7.63;1.50;;;15.60;99.90;;;;;;4863453;29;20046;-54
2023/07/30 04:52:20;;;;;;;9.82;1.90;;;15.60;99.90;;;;;;4864578;29;20045;-55
2023/07/30 04:54:46;;;;;;;6.68;1.67;;;15.60;99.90;;;;;;4864262;29;20056;-50
2023/07/30 04:57:13;;;;;;;9.95;1.90;;;15.60;99.90;;;;;;4864654;29;20053;-54
2023/07/30 04:59:40;;;;;;;7.18;1.67;;;15.60;99.90;;;;;;4863329;29;20049;-50
2023/07/30 05:02:07;;;;;;;9.32;2.03;;;15.70;99.90;;;;;;4863363;29;20045;-55
2023/07/30 05:04:34;;;;;;;9.80;2.33;;;15.80;99.90;;;;;;4863645;29;20050;-52
2023/07/30 05:07:01;;;;;;;12.77;2.13;;;15.90;99.90;;;;;;4864670;29;20045;-55
2023/07/30 05:09:27;;;;;;;8.98;1.55;;;15.90;99.90;;;;;;4864609;29;20041;-52
2023/07/30 05:11:54;;;;;;;7.30;1.65;;;16.00;99.90;;;;;;4863991;29;20410;-52
2023/07/30 05:14:21;;;;;;;7.35;1.67;;;16.00;99.90;;;;;;4864547;29;20045;-51
2023/07/30 05:16:48;;;;;;;11.63;2.20;;;16.10;99.90;;;;;;4864063;29;20401;-52
2023/07/30 05:19:15;;;;;;;5.53;1.67;;;16.10;99.90;;;;;;4864319;29;20497;-52
2023/07/30 05:21:41;;;;;;;7.75;1.70;;;16.10;99.90;;;;;;4863851;29;20064;-53
2023/07/30 05:24:08;;;;;;;8.13;1.98;;;16.20;99.90;;;;;;4864086;29;20060;-54
2023/07/30 05:26:35;;;;;;;7.80;1.60;;;16.20;99.90;;;;;;4863897;29;20077;-48
2023/07/30 05:29:03;;;;;;;11.40;1.90;;;16.30;99.90;;;;;;4864047;29;20403;-51
2023/07/30 05:31:30;;;;;;;7.32;1.85;;;16.30;99.90;;;;;;4864195;29;20041;-56
2023/07/30 05:33:56;;;;;;;10.07;2.05;;;16.40;99.90;;;;;;4862323;29;20044;-56
2023/07/30 05:36:23;;;;;;;8.25;1.80;;;16.40;99.90;;;;;;4863822;29;20081;-54
2023/07/30 05:38:50;;;;;;;9.20;1.95;;;16.50;99.90;;;;;;4864020;29;20046;-51
2023/07/30 05:41:17;;;;;;;12.52;2.00;;;16.70;99.90;;;;;;4863729;29;20077;-50
2023/07/30 05:43:44;;;;;;;8.15;1.75;;;16.80;99.90;;;;;;4863964;29;20046;-56
2023/07/30 05:46:10;;;;;;;10.25;1.90;;;17.00;99.90;;;;;;4863882;29;20057;-52
2023/07/30 05:48:37;;;;;;;9.13;1.80;;;17.20;99.90;;;;;;4864102;29;20045;-53
2023/07/30 05:51:04;;;;;;;9.93;2.00;;;17.20;99.90;;;;;;4864057;29;20052;-52
2023/07/30 05:53:31;;;;;;;10.15;2.30;;;17.20;99.90;;;;;;4863374;29;20037;-54
2023/07/30 05:55:58;;;;;;;10.45;2.00;;;17.10;99.90;;;;;;4863305;29;20045;-51
2023/07/30 05:58:25;;;;;;;11.77;1.90;;;17.10;99.90;;;;;;4863544;29;20049;-56
2023/07/30 06:00:51;;;;;;;7.72;1.90;;;17.00;99.90;;;;;;4862444;29;20109;-53
2023/07/30 06:03:18;;;;;;;12.38;1.98;;;17.00;99.90;;;;;;4863693;29;20046;-56
2023/07/30 06:05:45;;;;;;;8.02;2.40;;;16.90;99.90;;;;;;4863018;29;20136;-53
2023/07/30 06:08:12;;;;;;;10.65;1.90;;;16.90;99.90;;;;;;4863296;29;20065;-54
2023/07/30 06:10:40;;;;;;;12.30;2.78;;;16.90;99.90;;;;;;4863619;29;20508;-50
2023/07/30 06:13:07;;;;;;;10.00;2.03;;;16.80;99.90;;;;;;4863043;29;20042;-52
2023/07/30 06:15:34;;;;;;;7.30;1.70;;;16.70;99.90;;;;;;4863678;29;20041;-54
2023/07/30 06:18:02;;;;;;;13.02;2.33;;;16.70;99.90;;;;;;4863476;29;20128;-52
2023/07/30 06:20:29;;;;;;;10.60;2.30;;;16.70;99.90;;;;;;4862776;29;20064;-54
2023/07/30 06:22:55;;;;;;;7.38;1.90;;;16.70;99.90;;;;;;4863008;29;20351;-51
2023/07/30 06:25:22;;;;;;;9.73;2.22;;;16.80;99.90;;;;;;4863235;29;20051;-55
2023/07/30 06:27:49;;;;;;;9.55;2.08;;;16.90;99.90;;;;;;4863070;29;20050;-56
2023/07/30 06:30:16;;;;;;;9.32;2.25;;;17.00;99.90;;;;;;4861611;29;20056;-53
2023/07/30 06:32:42;;;;;;;12.02;1.83;;;17.10;99.90;;;;;;4863257;29;20045;-56
2023/07/30 06:35:10;;;;;;;11.57;2.10;;;17.10;99.90;;;;;;4862468;29;20046;-52
2023/07/30 06:37:37;;;;;;;7.15;2.03;;;17.10;99.90;;;;;;4862547;29;20045;-57
2023/07/30 06:40:06;;;;;;;11.38;2.20;;;17.20;99.90;;;;;;4862779;29;20136;-57
2023/07/30 06:42:33;;;;;;;6.88;2.17;;;17.20;99.90;;;;;;4862852;29;20045;-51
2023/07/30 06:45:00;;;;;;;11.40;2.17;;;17.20;99.90;;;;;;4862594;29;20097;-54
2023/07/30 06:47:27;;;;;;;10.73;2.42;;;17.40;99.90;;;;;;4862606;29;20120;-57
2023/07/30 06:49:53;;;;;;;9.23;2.30;;;17.40;99.90;;;;;;4860840;29;20435;-52
2023/07/30 06:52:20;;;;;;;9.68;2.00;;;17.40;99.90;;;;;;4862284;29;20052;-51
2023/07/30 06:54:47;;;;;;;9.27;2.33;;;17.50;99.90;;;;;;4862141;29;20057;-51
2023/07/30 06:57:14;;;;;;;8.35;1.95;;;17.50;99.90;;;;;;4862264;29;20458;-54
2023/07/30 06:59:41;;;;;;;9.43;2.40;;;17.50;99.90;;;;;;4861937;29;20158;-54
2023/07/30 07:02:08;;;;;;;7.45;1.83;;;17.50;99.90;;;;;;4862283;29;20064;-57
2023/07/30 07:04:34;;;;;;;11.38;2.50;;;17.50;99.90;;;;;;4862244;29;20073;-55
2023/07/30 07:07:03;;;;;;;11.70;2.15;;;17.50;99.90;;;;;;4861988;29;20056;-52
2023/07/30 07:09:30;;;;;;;7.93;2.30;;;17.60;99.90;;;;;;4862059;29;20081;-57
2023/07/30 07:11:57;;;;;;;10.75;2.25;;;17.80;99.90;;;;;;4862430;29;20053;-53
2023/07/30 07:14:23;;;;;;;9.02;2.22;;;17.90;99.90;;;;;;4862326;29;20040;-54
2023/07/30 07:16:50;;;;;;;11.48;2.50;;;17.90;99.90;;;;;;4861733;29;20042;-56
2023/07/30 07:19:17;;;;;;;11.10;2.60;;;17.90;99.90;;;;;;4861984;29;20390;-52
2023/07/30 07:21:44;;;;;;;9.60;2.40;;;17.90;99.90;;;;;;4861765;29;20053;-56
2023/07/30 07:24:11;;;;;;;11.35;2.22;;;17.90;99.90;;;;;;4860969;29;20398;-54
2023/07/30 07:26:37;;;;;;;9.30;2.00;;;17.80;99.90;;;;;;4861705;29;20494;-57
2023/07/30 07:29:04;;;;;;;9.25;2.30;;;17.70;99.90;;;;;;4861657;29;20052;-55
2023/07/30 07:31:31;;;;;;;10.63;2.97;;;17.60;99.90;;;;;;4861732;29;20060;-52
2023/07/30 07:34:01;;;;;;;12.25;2.40;;;17.60;99.90;;;;;;4861972;29;20045;-57
2023/07/30 07:36:28;;;;;;;9.50;2.00;;;17.50;99.90;;;;;;4861891;29;20049;-52
2023/07/30 07:38:54;;;;;;;11.18;2.38;;;17.50;99.90;;;;;;4861422;29;20049;-51
2023/07/30 07:41:21;;;;;;;10.50;2.08;;;17.50;99.90;;;;;;4862061;29;20045;-55
2023/07/30 07:43:49;;;;;;;8.07;2.40;;;17.50;99.90;;;;;;4862048;29;20048;-56
2023/07/30 07:46:15;;;;;;;9.77;1.92;;;17.50;99.90;;;;;;4860188;29;20148;-52
2023/07/30 07:48:42;;;;;;;10.93;2.30;;;17.60;99.90;;;;;;4861532;29;20077;-56
2023/07/30 07:51:10;;;;;;;8.88;2.00;;;17.60;99.90;;;;;;4860499;29;20049;-54
2023/07/30 07:53:37;;;;;;;5.30;1.98;;;17.60;99.90;;;;;;4861883;29;20105;-52
2023/07/30 07:56:04;;;;;;;7.63;2.13;;;17.70;99.90;;;;;;4860712;29;20042;-56
2023/07/30 07:58:30;;;;;;;9.60;2.10;;;17.70;99.90;;;;;;4861752;29;20060;-51
2023/07/30 08:00:57;;;;;;;8.32;2.17;;;17.70;99.90;;;;;;4861952;29;20053;-50
2023/07/30 08:03:26;;;;;;;8.63;1.75;;;17.80;99.90;;;;;;4844925;29;20460;-53
2023/07/30 08:05:53;;;;;;;6.88;1.88;;;17.80;99.90;;;;;;4861841;29;20069;-56
2023/07/30 08:08:20;;;;;;;7.20;1.85;;;17.80;99.10;;;;;;4861408;29;20045;-53
2023/07/30 08:10:47;;;;;;;9.27;2.20;;;17.80;99.40;;;;;;4860893;29;20049;-52
2023/07/30 08:13:14;;;;;;;8.65;1.80;;;17.90;98.50;;;;;;4861330;29;20050;-55
2023/07/30 08:15:41;;;;;;;9.15;2.10;;;17.90;98.30;;;;;;4861064;29;20048;-52
2023/07/30 08:18:08;;;;;;;6.97;1.58;;;18.00;98.30;;;;;;4861395;29;20074;-53
2023/07/30 08:20:35;;;;;;;4.85;1.50;;;18.10;98.30;;;;;;4861373;29;20089;-57
2023/07/30 08:23:02;;;;;;;8.52;1.92;;;18.20;98.10;;;;;;4861432;29;20056;-58
2023/07/30 08:25:28;;;;;;;5.53;1.33;;;18.20;97.30;;;;;;4861434;29;20046;-57
2023/07/30 08:27:55;;;;;;;9.82;2.00;;;18.30;97.60;;;;;;4860880;29;20049;-56
2023/07/30 08:30:22;;;;;;;7.00;1.58;;;18.50;97.30;;;;;;4845075;29;20050;-53
2023/07/30 08:32:49;;;;;;;7.03;1.73;;;18.70;97.10;;;;;;4829483;29;20048;-52
2023/07/30 08:35:16;;;;;;;10.30;1.60;;;18.80;97.20;;;;;;4844628;29;20041;-53
2023/07/30 08:37:42;;;;;;;5.65;1.65;;;18.80;97.10;;;;;;4861103;29;20101;-52
2023/07/30 08:40:09;;;;;;;9.23;1.75;;;18.80;96.90;;;;;;4860878;29;20049;-54
2023/07/30 08:42:36;;;;;;;4.93;1.75;;;18.90;96.70;;;;;;4844396;29;20057;-56
2023/07/30 08:45:03;;;;;;;7.85;1.88;;;18.90;96.00;;;;;;4860802;29;20050;-48
2023/07/30 08:47:30;;;;;;;6.97;1.65;;;19.00;95.80;;;;;;4861291;29;20148;-56
2023/07/30 08:49:56;;;;;;;8.52;1.70;;;19.00;95.50;;;;;;4860991;29;20504;-54
2023/07/30 08:52:24;;;;;;;8.00;1.60;;;19.10;95.50;;;;;;4861315;29;20072;-57
2023/07/30 08:54:50;;;;;;;6.03;1.98;;;19.20;95.10;;;;;;4860917;29;20129;-58
2023/07/30 08:57:19;;;;;;;8.30;1.63;;;19.10;95.30;;;;;;4844723;29;20397;-51
2023/07/30 08:59:45;;;;;;;5.45;1.30;;;19.10;96.00;;;;;;4860705;29;20098;-48
2023/07/30 09:02:12;;;;;;;7.75;1.75;;;19.20;96.30;;;;;;4844372;29;20158;-50
2023/07/30 09:04:39;;;;;;;7.30;1.92;;;19.30;95.60;;;;;;4861045;29;20049;-55
2023/07/30 09:07:06;;;;;;;7.25;1.75;;;19.40;96.20;;;;;;4861850;29;20413;-54
2023/07/30 09:09:35;;;;;;;9.05;2.30;;;19.60;96.20;;;;;;4846025;29;20053;-56
2023/07/30 09:12:02;;;;;;;5.60;1.67;;;19.80;95.50;;;;;;4846776;29;20038;-58
2023/07/30 09:14:29;;;;;;;7.25;2.13;;;20.00;95.60;;;;;;4864574;29;20045;-56
2023/07/30 09:16:55;;;;;;;5.88;1.73;;;20.00;95.40;;;;;;4863929;29;20049;-58
2023/07/30 09:19:22;;;;;;;6.88;1.85;;;20.00;95.70;;;;;;4863803;29;20056;-56
2023/07/30 09:21:49;;;;;;;4.93;1.70;;;20.00;95.50;;;;;;4863519;29;20058;-59
2023/07/30 09:24:16;;;;;;;8.27;1.85;;;20.00;95.50;;;;;;4863398;29;20408;-54
2023/07/30 09:26:43;;;;;;;8.10;1.92;;;20.10;95.30;;;;;;4863921;29;20077;-55
2023/07/30 09:29:10;;;;;;;8.35;2.15;;;19.90;94.20;;;;;;4863635;29;20556;-58
2023/07/30 09:31:37;;;;;;;5.57;1.83;;;19.80;94.90;;;;;;4863711;29;20049;-55
2023/07/30 09:34:04;;;;;;;8.23;2.05;;;19.80;94.50;;;;;;4863109;29;20105;-56
2023/07/30 09:36:31;;;;;;;8.13;1.92;;;19.90;94.60;;;;;;4863554;29;20049;-56
2023/07/30 09:38:57;;;;;;;6.35;1.70;;;20.00;94.60;;;;;;4863564;29;20500;-56
2023/07/30 09:41:24;;;;;;;7.07;2.08;;;20.00;94.00;;;;;;4863840;29;20113;-58
2023/07/30 09:43:51;;;;;;;6.57;1.95;;;20.00;94.20;;;;;;4863692;29;20042;-57
2023/07/30 09:46:18;;;;;;;7.53;2.20;;;19.90;94.30;;;;;;4863487;29;20050;-59
2023/07/30 09:48:45;;;;;;;7.57;1.88;;;19.90;94.30;;;;;;4863209;29;20054;-59
2023/07/30 09:51:12;;;;;;;4.75;1.77;;;19.80;93.60;;;;;;4863656;29;20438;-54
2023/07/30 09:53:38;;;;;;;5.95;1.80;;;19.80;94.10;;;;;;4863418;29;20041;-58
2023/07/30 09:56:08;;;;;;;6.28;1.63;;;20.00;94.60;;;;;;4863390;29;20485;-58
2023/07/30 09:58:37;;;;;;;10.02;1.77;;;20.20;94.00;;;;;;4862125;29;20050;-57
2023/07/30 10:01:04;;;;;;;6.68;2.00;;;20.40;93.50;;;;;;4863382;29;20049;-58
2023/07/30 10:03:33;;;;;;;7.63;2.05;;;20.60;93.90;;;;;;4863441;29;20124;-58
2023/07/30 10:05:59;;;;;;;5.72;2.08;;;20.70;94.30;;;;;;4862148;29;20053;-58
2023/07/30 10:08:28;;;;;;;7.22;1.85;;;20.70;93.10;;;;;;4861760;29;20447;-58
2023/07/30 10:10:55;;;;;;;7.95;1.90;;;20.70;93.70;;;;;;4862419;29;20064;-59
2023/07/30 10:13:22;;;;;;;7.72;2.10;;;20.80;93.70;;;;;;4862197;29;20079;-55
2023/07/30 10:15:49;;;;;;;6.85;1.90;;;20.80;93.20;;;;;;4863116;29;20041;-58
2023/07/30 10:18:16;;;;;;;9.52;2.17;;;20.90;93.60;;;;;;4862659;29;20263;-55
2023/07/30 10:20:42;;;;;;;7.40;2.25;;;21.10;93.80;;;;;;4860935;29;20494;-56
2023/07/30 10:23:09;;;;;;;8.27;2.00;;;21.20;93.60;;;;;;4861763;29;20053;-57
2023/07/30 10:25:36;;;;;;;9.07;2.38;;;21.20;93.80;;;;;;4863265;29;20124;-52
2023/07/30 10:28:03;;;;;;;8.70;2.47;;;21.20;93.70;;;;;;4862963;29;20485;-58
2023/07/30 10:30:30;;;;;;;7.43;1.90;;;21.10;94.00;;;;;;4861665;29;20098;-54
2023/07/30 10:32:59;;;;;;;7.78;2.42;;;21.20;94.60;;;;;;4862682;29;20046;-58
2023/07/30 10:35:27;;;;;;;8.70;1.85;;;21.30;94.30;;;;;;4862621;29;20149;-55
2023/07/30 10:37:54;;;;;;;8.10;2.30;;;21.20;94.50;;;;;;4861098;29;20408;-55
2023/07/30 10:40:20;;;;;;;7.60;2.00;;;21.20;94.60;;;;;;4862323;29;20111;-55
2023/07/30 10:42:49;;;;;;;6.32;1.95;;;21.20;94.60;;;;;;4862572;29;20061;-58
2023/07/30 10:45:15;;;;;;;7.38;2.40;;;21.20;94.50;;;;;;4861607;29;20060;-58
2023/07/30 10:47:42;;;;;;;7.25;2.38;;;21.20;94.60;;;;;;4862516;29;20046;-58
2023/07/30 10:50:11;;;;;;;7.55;1.95;;;21.10;94.60;;;;;;4861220;29;20064;-53
2023/07/30 10:52:38;;;;;;;7.22;1.95;;;21.00;94.90;;;;;;4862369;29;20060;-53
2023/07/30 10:55:05;;;;;;;6.43;1.63;;;21.00;94.90;;;;;;4862357;29;20042;-53
2023/07/30 10:57:31;;;;;;;7.80;2.15;;;21.00;95.20;;;;;;4861642;29;20050;-55
2023/07/30 10:59:59;;;;;;;11.43;2.00;;;21.10;95.60;;;;;;4862034;29;20053;-56
2023/07/30 11:02:25;;;;;;;8.32;2.15;;;21.20;95.20;;;;;;4861568;29;20049;-53
2023/07/30 11:04:52;;;;;;;8.30;2.22;;;21.20;95.30;;;;;;4862008;29;20050;-58
2023/07/30 11:07:19;;;;;;;6.90;2.13;;;21.30;95.20;;;;;;4862323;29;20049;-55
2023/07/30 11:09:46;;;;;;;8.20;2.17;;;21.40;95.30;;;;;;4860002;29;20512;-54
2023/07/30 11:12:17;;;;;;;5.63;1.80;;;21.50;95.30;;;;;;4861841;29;20037;-58
2023/07/30 11:14:44;;;;;;;4.38;1.60;;;21.50;95.10;;;;;;4861901;29;20045;-49
2023/07/30 11:17:11;;;;;;;4.85;1.60;;;21.60;95.00;;;;;;4861210;29;20118;-47
2023/07/30 11:19:37;;;;;;;8.18;2.10;;;21.70;95.30;;;;;;4861619;29;20053;-54
2023/07/30 11:22:09;;;;;;;6.22;2.10;;;21.80;95.20;;;;;;4861757;29;20141;-48
2023/07/30 11:24:36;;;;;;;5.25;1.50;;;21.70;95.20;;;;;;4861176;29;20052;-55
2023/07/30 11:27:02;;;;;;;8.68;1.90;;;21.80;95.40;;;;;;4861630;29;20481;-57
2023/07/30 11:29:29;;;;;;;7.30;1.90;;;21.80;95.50;;;;;;4860385;29;20501;-57
2023/07/30 11:31:56;;;;;;;5.47;2.00;;;21.80;95.60;;;;;;4861137;29;20049;-53
2023/07/30 11:34:23;;;;;;;6.47;2.10;;;21.70;95.70;;;;;;4861503;29;20128;-55
2023/07/30 11:36:50;;;;;;;6.30;2.38;;;21.50;96.10;;;;;;4861628;29;20046;-56
2023/07/30 11:39:17;;;;;;;7.57;2.03;;;21.40;96.50;;;;;;4861974;29;20068;-57
2023/07/30 11:41:45;;;;;;;8.35;2.08;;;21.40;96.90;;;;;;4861665;29;20045;-56
2023/07/30 11:44:12;;;;;;;5.38;1.77;;;21.40;97.10;;;;;;4861026;29;20053;-58
2023/07/30 11:46:39;;;;;;;5.82;2.00;;;21.40;97.30;;;;;;4861762;29;20057;-53
2023/07/30 11:49:06;;;;;;;7.07;1.92;;;21.40;97.60;;;;;;4860952;29;20054;-58
2023/07/30 11:51:32;;;;;;;4.38;1.42;;;21.30;97.90;;;;;;4861426;29;20049;-56
2023/07/30 11:54:01;;;;;;;5.45;1.58;;;21.20;98.30;;;;;;4861260;29;20133;-57
2023/07/30 11:56:27;;;;;;;3.42;1.25;;;21.10;98.50;;;;;;4861306;29;20037;-57
2023/07/30 11:58:54;;;;;;;6.68;1.20;;;20.90;98.90;;;;;;4861413;29;20096;-57
2023/07/30 12:01:21;;;;;;;2.60;1.05;;;20.80;99.10;;;;;;4861096;29;20057;-57
2023/07/30 12:03:48;;;;;;;5.97;1.33;;;20.80;99.30;;;;;;4861355;29;20068;-49
2023/07/30 12:06:15;;;;;;;5.40;1.33;;;20.70;99.90;;;;;;4861796;29;20046;-54
2023/07/30 12:08:42;;;;;;;2.45;1.02;;;20.60;99.90;;;;;;4861696;29;20054;-55
2023/07/30 12:11:09;;;;;;;2.40;0.90;;;20.60;99.90;;;;;;4859806;29;20154;-58
2023/07/30 12:13:37;;;;;;;2.03;0.93;;;20.60;99.90;;;;;;4861525;29;20042;-52
2023/07/30 12:16:04;;;;;;;3.47;1.20;;;20.60;99.90;;;;;;4860853;29;20049;-51
2023/07/30 12:18:31;;;;;;;2.47;0.80;;;20.60;99.90;;;;;;4861452;29;20067;-52
2023/07/30 12:20:58;;;;;;;2.85;0.93;;;20.70;99.90;;;;;;4860874;29;20058;-59
2023/07/30 12:23:25;;;;;;;2.90;1.10;;;20.70;99.90;;;;;;4861411;29;20067;-55
2023/07/30 12:25:52;;;;;;;6.10;1.33;;;20.90;99.90;;;;;;4861140;29;20050;-56
2023/07/30 12:28:19;;;;;;;4.22;1.88;;;21.00;99.90;;;;;;4860919;29;20136;-52
2023/07/30 12:30:46;;;;;;;2.67;1.08;;;21.00;99.90;;;;;;4861144;29;20042;-57
2023/07/30 12:33:13;;;;;;;4.85;1.23;;;21.10;99.90;;;;;;4860815;29;20064;-51
2023/07/30 12:35:40;;;;;;;2.95;1.23;;;21.20;99.90;;;;;;4861472;29;20144;-49
2023/07/30 12:38:06;;;;;;;2.90;1.30;;;21.20;99.90;;;;;;4860582;29;20117;-49
2023/07/30 12:40:33;;;;;;;3.42;1.42;;;21.20;99.90;;;;;;4861232;29;20061;-51